createdAt,value
2023-05-22T00:40:43.556Z,19.30
2023-05-22T01:06:18.674Z,19.10
2023-05-22T01:09:07.171Z,19.20
2023-05-22T01:12:07.280Z,19.20
2023-05-22T01:15:05.059Z,19.30
2023-05-22T01:18:11.280Z,19.30
2023-05-22T01:21:04.847Z,19.30
2023-05-22T01:24:36.091Z,19.30
2023-05-22T01:27:42.265Z,19.30
2023-05-22T01:30:56.989Z,19.30
2023-05-22T01:33:49.397Z,19.20
2023-05-22T01:36:39.299Z,19.20
2023-05-22T01:39:29.877Z,19.10
2023-05-22T01:42:18.834Z,19.00
2023-05-22T01:45:10.047Z,18.90
2023-05-22T05:45:30.296Z,19.10
2023-05-22T05:48:18.733Z,19.10
2023-05-22T05:51:07.301Z,19.10
2023-05-22T05:56:44.570Z,19.20
2023-05-22T05:59:32.984Z,19.30
2023-05-22T06:02:22.962Z,19.30
2023-05-22T06:05:11.696Z,19.40
2023-05-22T06:08:00.259Z,19.40
2023-05-22T06:10:49.011Z,19.50
2023-05-22T06:16:26.707Z,19.80
2023-05-22T06:19:16.646Z,19.80
2023-05-22T06:30:40.230Z,20.20
2023-05-22T06:33:29.104Z,20.30
2023-05-22T06:36:19.296Z,20.30
2023-05-22T06:56:02.490Z,21.10
2023-05-22T06:58:50.974Z,21.20
2023-05-22T07:01:39.765Z,21.30
2023-05-22T07:04:28.373Z,21.30
2023-05-22T07:07:16.857Z,21.50
2023-05-22T07:10:07.969Z,21.60
2023-05-22T07:12:56.701Z,21.70
2023-05-22T07:15:46.383Z,21.80
2023-05-22T07:18:35.024Z,21.80
2023-05-22T07:21:24.742Z,21.90
2023-05-22T07:29:52.997Z,22.20
2023-05-22T07:32:41.516Z,22.20
2023-05-22T07:35:30.108Z,22.30
2023-05-22T07:38:18.671Z,22.40
2023-05-22T07:41:07.193Z,22.50
2023-05-22T07:46:45.983Z,23.00
2023-05-22T07:49:34.608Z,22.60
2023-05-22T07:58:04.264Z,22.80
2023-05-22T08:03:43.294Z,22.90
2023-05-22T08:06:32.034Z,23.00
2023-05-22T08:51:53.776Z,23.20
2023-05-22T08:54:43.632Z,23.30
2023-05-22T08:57:32.865Z,23.30
2023-05-22T09:00:23.490Z,23.40
2023-05-22T09:03:13.978Z,23.50
2023-05-22T09:08:53.392Z,23.60
2023-05-22T09:11:41.918Z,23.70
2023-05-22T09:14:38.828Z,23.70
2023-05-22T09:17:27.925Z,23.80
2023-05-22T09:20:16.793Z,23.90
2023-05-22T09:23:14.366Z,23.90
2023-05-22T09:26:04.766Z,23.90
2023-05-22T09:28:53.243Z,23.90
2023-05-22T09:31:45.270Z,23.90
2023-05-22T09:34:34.106Z,23.90
2023-05-22T09:37:22.619Z,24.00
2023-05-22T09:40:14.101Z,24.00
2023-05-22T09:43:08.407Z,24.10
2023-05-22T09:46:04.320Z,24.20
2023-05-22T09:48:53.209Z,24.20
2023-05-22T09:51:43.005Z,24.20
2023-05-22T09:54:33.822Z,24.30
2023-05-22T09:57:23.139Z,24.30
2023-05-22T10:00:18.342Z,24.30
2023-05-22T10:06:02.488Z,24.60
2023-05-22T10:08:55.615Z,24.70
2023-05-22T10:11:45.145Z,24.80
2023-05-22T10:14:35.581Z,24.80
2023-05-22T10:17:25.992Z,24.90
2023-05-22T10:20:15.230Z,24.90
2023-05-22T10:23:04.984Z,25.00
2023-05-22T10:25:54.172Z,25.10
2023-05-22T10:28:46.264Z,25.10
2023-05-22T10:31:47.095Z,25.20
2023-05-22T11:03:18.406Z,26.40
2023-05-22T11:06:07.827Z,26.40
2023-05-22T11:23:10.182Z,26.70
2023-05-22T11:31:59.049Z,26.90
2023-05-22T11:46:22.117Z,27.80
2023-05-22T11:49:13.238Z,27.90
2023-05-22T11:52:01.793Z,28.00
2023-05-22T11:54:50.640Z,28.00
2023-05-22T11:57:39.759Z,28.30
2023-05-22T12:00:30.285Z,28.10
2023-05-22T12:03:19.368Z,28.20
2023-05-22T12:08:57.279Z,28.50
2023-05-22T12:11:48.648Z,28.70
2023-05-22T12:14:37.188Z,28.70
2023-05-22T12:17:29.641Z,28.80
2023-05-22T12:20:18.488Z,28.80
2023-05-22T16:00:54.551Z,27.80
2023-05-22T16:03:43.171Z,27.80
2023-05-22T16:06:32.688Z,27.70
2023-05-22T16:09:21.233Z,27.60
2023-05-22T16:12:10.536Z,27.60
2023-05-22T16:15:01.481Z,27.60
2023-05-22T16:17:51.049Z,27.60
2023-05-22T16:20:40.464Z,27.50
2023-05-22T16:23:29.080Z,27.50
2023-05-22T16:29:09.162Z,27.20
2023-05-22T16:31:59.250Z,27.20
2023-05-22T16:34:47.925Z,27.10
2023-05-22T16:37:36.682Z,27.10
2023-05-22T16:40:25.183Z,27.10
2023-05-22T17:50:55.090Z,26.10
2023-05-22T17:53:43.825Z,26.10
2023-05-22T17:56:33.720Z,25.90
2023-05-22T17:59:22.198Z,25.80
2023-05-22T18:02:10.796Z,25.70
2023-05-22T18:04:59.272Z,25.70
2023-05-22T18:07:47.762Z,25.50
2023-05-22T18:10:36.258Z,25.50
2023-05-22T18:13:26.121Z,25.50
2023-05-22T18:16:14.586Z,25.40
2023-05-22T18:19:03.793Z,25.40
2023-05-22T18:21:53.610Z,25.40
2023-05-22T19:04:11.663Z,24.70
2023-05-22T19:07:00.339Z,24.60
2023-05-22T19:09:49.667Z,24.60
2023-05-22T19:12:38.335Z,24.50
2023-05-22T19:15:26.824Z,24.50
2023-05-22T19:18:15.360Z,24.40
2023-05-22T19:23:54.203Z,24.30
2023-05-22T19:26:42.877Z,24.30
2023-05-22T19:29:31.432Z,24.20
2023-05-22T19:32:19.887Z,24.20
2023-05-22T19:35:09.363Z,24.20
2023-05-22T19:37:59.136Z,24.10
2023-05-22T19:40:47.961Z,24.10
2023-05-22T19:43:36.662Z,24.10
2023-05-22T19:46:25.213Z,24.10
2023-05-22T19:49:13.718Z,24.00
2023-05-22T20:00:33.507Z,24.00
2023-05-22T20:42:58.167Z,22.60
2023-05-22T20:48:36.942Z,22.20
2023-05-22T20:51:31.579Z,22.00
2023-05-22T20:54:20.390Z,22.00
2023-05-22T20:57:08.956Z,21.90
2023-05-22T21:08:25.773Z,21.50
2023-05-22T21:11:14.275Z,21.60
2023-05-22T21:14:02.755Z,21.70
2023-05-22T21:16:51.248Z,21.60
2023-05-22T21:19:41.114Z,21.50
2023-05-22T21:22:29.611Z,21.70
2023-05-22T21:25:18.093Z,21.70
2023-05-22T21:28:07.696Z,21.70
2023-05-22T21:30:56.258Z,21.70
2023-05-22T21:33:44.965Z,21.70
